Time;durP1;ratioP1;P1;durP2;ratioP2;P2;SDS_P1;SDS_P2;PMS_P1;PMS_P2;Temp;Humidity;BMP_temperature;BMP_pressure;BME280_temperature;BME280_humidity;BME280_pressure;Samples;Min_cycle;Max_cycle;Signal;HPM_P1;HPM_P2
2022/01/21 00:02:26;;;;;;;28.13;15.00;;;;;;;;;;5076106;28;20037;-65
2022/01/21 00:04:52;;;;;;;37.50;17.63;;;;;;;;;;5076039;28;20028;-65
2022/01/21 00:07:19;;;;;;;27.65;14.95;;;;;;;;;;5075999;28;20081;-65
2022/01/21 00:09:47;;;;;;;26.15;14.20;;;;;;;;;;5057916;28;20036;-64
2022/01/21 00:12:13;;;;;;;23.65;12.45;;;;;;;;;;5075939;28;20066;-66
2022/01/21 00:14:40;;;;;;;26.50;14.32;;;;;;;;;;5075930;28;20028;-65
2022/01/21 00:17:07;;;;;;;22.75;11.10;;;;;;;;;;5075841;28;20036;-65
2022/01/21 00:19:38;;;;;;;19.63;10.55;;;;;;;;;;5075766;28;20103;-65
2022/01/21 00:30:23;;;;;;;32.20;16.67;;;;;;;;;;5075357;28;20031;-65
2022/01/21 00:32:50;;;;;;;52.38;21.60;;;;;;;;;;5075633;28;20020;-65
2022/01/21 00:35:16;;;;;;;55.58;22.80;;;;;;;;;;5057117;28;20055;-65
2022/01/21 00:37:43;;;;;;;46.75;19.73;;;;;;;;;;5075476;28;20066;-65
2022/01/21 00:40:12;;;;;;;35.55;17.50;;;;;;;;;;5075427;28;20024;-65
2022/01/21 00:45:10;;;;;;;25.15;12.90;;;;;;;;;;5074677;28;20040;-64
2022/01/21 00:47:36;;;;;;;22.67;10.40;;;;;;;;;;5075336;28;20036;-66
2022/01/21 00:50:03;;;;;;;18.48;9.88;;;;;;;;;;5074918;28;20493;-65
2022/01/21 00:52:29;;;;;;;16.35;9.13;;;;;;;;;;5075173;28;20052;-65
2022/01/21 00:54:56;;;;;;;16.05;9.27;;;;;;;;;;5075471;28;20115;-64
2022/01/21 00:57:22;;;;;;;25.50;10.98;;;;;;;;;;5057042;28;20024;-64
2022/01/21 00:59:48;;;;;;;12.95;7.57;;;;;;;;;;5075102;28;20032;-66
2022/01/21 01:02:15;;;;;;;13.65;7.80;;;;;;;;;;5056930;28;20119;-65
2022/01/21 01:04:41;;;;;;;14.70;8.20;;;;;;;;;;5075088;28;20124;-66
2022/01/21 01:07:07;;;;;;;18.45;9.50;;;;;;;;;;5056924;28;20024;-65
2022/01/21 01:09:34;;;;;;;16.90;9.45;;;;;;;;;;5075088;28;20103;-65
2022/01/21 01:22:29;;;;;;;16.23;10.40;;;;;;;;;;5074604;28;20538;-64
2022/01/21 01:27:42;;;;;;;19.60;10.60;;;;;;;;;;5074303;28;20046;-63
2022/01/21 01:30:10;;;;;;;20.20;10.82;;;;;;;;;;5056463;28;20021;-64
2022/01/21 01:32:38;;;;;;;20.23;12.10;;;;;;;;;;5074395;28;20024;-64
2022/01/21 01:35:04;;;;;;;22.95;11.60;;;;;;;;;;5056156;28;20063;-64
2022/01/21 01:50:43;;;;;;;16.92;10.07;;;;;;;;;;5073839;28;20400;-64
2022/01/21 01:53:10;;;;;;;18.05;10.32;;;;;;;;;;5073976;28;20034;-63
2022/01/21 01:55:37;;;;;;;17.70;9.88;;;;;;;;;;5073040;28;20032;-63
2022/01/21 01:58:04;;;;;;;20.10;11.13;;;;;;;;;;5055961;28;20039;-64
2022/01/21 02:00:30;;;;;;;22.95;10.70;;;;;;;;;;5073821;28;20025;-63
2022/01/21 02:03:05;;;;;;;21.38;11.57;;;;;;;;;;5073784;28;20047;-65
2022/01/21 02:05:31;;;;;;;19.13;10.20;;;;;;;;;;5073725;28;20047;-65
2022/01/21 02:07:57;;;;;;;19.00;10.20;;;;;;;;;;5073650;28;20461;-66
2022/01/21 02:10:23;;;;;;;18.35;10.27;;;;;;;;;;5073666;28;20115;-65
2022/01/21 02:12:50;;;;;;;21.77;11.50;;;;;;;;;;5073605;28;20024;-64
2022/01/21 02:15:16;;;;;;;21.77;12.07;;;;;;;;;;5055673;28;20109;-63
2022/01/21 02:22:55;;;;;;;18.83;10.90;;;;;;;;;;5073257;28;20523;-64
2022/01/21 02:25:21;;;;;;;21.63;12.18;;;;;;;;;;5073372;28;20390;-65
2022/01/21 02:27:49;;;;;;;29.90;14.15;;;;;;;;;;5055476;28;20056;-63
2022/01/21 02:30:19;;;;;;;21.88;12.85;;;;;;;;;;5073397;28;20036;-63
2022/01/21 02:32:46;;;;;;;22.08;12.35;;;;;;;;;;5073347;28;20033;-65
2022/01/21 02:35:13;;;;;;;17.75;10.93;;;;;;;;;;5073242;28;20063;-63
2022/01/21 02:37:39;;;;;;;18.17;11.20;;;;;;;;;;5073237;28;20082;-64
2022/01/21 02:40:06;;;;;;;21.98;11.70;;;;;;;;;;5073242;28;20020;-63
2022/01/21 02:42:33;;;;;;;20.17;11.35;;;;;;;;;;5073039;28;20457;-65
2022/01/21 02:44:59;;;;;;;20.55;11.00;;;;;;;;;;5073133;28;20039;-64
2022/01/21 02:47:26;;;;;;;20.75;10.98;;;;;;;;;;5073439;28;20028;-64
2022/01/21 02:49:53;;;;;;;21.45;10.95;;;;;;;;;;5072867;28;20078;-63
2022/01/21 02:52:23;;;;;;;18.35;10.57;;;;;;;;;;5055060;28;20021;-64
2022/01/21 02:54:49;;;;;;;19.92;10.02;;;;;;;;;;5073085;28;20021;-63
2022/01/21 02:57:15;;;;;;;19.10;9.95;;;;;;;;;;5073022;28;20081;-64
2022/01/21 02:59:42;;;;;;;22.50;10.20;;;;;;;;;;5072994;28;20028;-65
2022/01/21 03:02:09;;;;;;;21.80;10.65;;;;;;;;;;5072730;28;20523;-63
2022/01/21 03:04:45;;;;;;;19.00;10.05;;;;;;;;;;5072841;28;20037;-64
2022/01/21 03:07:11;;;;;;;19.52;9.07;;;;;;;;;;5076566;28;20032;-64
2022/01/21 03:09:37;;;;;;;19.48;10.32;;;;;;;;;;5079360;28;20128;-64
2022/01/21 03:12:04;;;;;;;17.33;8.77;;;;;;;;;;5079290;28;20158;-64
2022/01/21 03:14:30;;;;;;;16.80;9.77;;;;;;;;;;5079588;28;20139;-67
2022/01/21 03:16:57;;;;;;;15.57;9.07;;;;;;;;;;5061525;28;20161;-66
2022/01/21 03:19:23;;;;;;;16.95;10.00;;;;;;;;;;5061438;28;20028;-66
2022/01/21 03:21:49;;;;;;;15.93;9.85;;;;;;;;;;5060861;28;20385;-65
2022/01/21 03:24:16;;;;;;;18.73;9.02;;;;;;;;;;5078345;28;20097;-66
2022/01/21 03:26:42;;;;;;;15.30;9.27;;;;;;;;;;5079783;28;20103;-65
2022/01/21 03:29:08;;;;;;;17.98;9.40;;;;;;;;;;5061369;28;20024;-65
2022/01/21 03:31:34;;;;;;;16.88;9.50;;;;;;;;;;5079493;28;20025;-65
2022/01/21 03:34:02;;;;;;;17.73;9.73;;;;;;;;;;5061452;28;20375;-65
2022/01/21 03:36:28;;;;;;;21.73;11.32;;;;;;;;;;5079530;28;20095;-64
2022/01/21 03:38:55;;;;;;;21.98;11.65;;;;;;;;;;5079394;28;20056;-66
2022/01/21 03:41:21;;;;;;;19.60;9.98;;;;;;;;;;5079359;28;20029;-65
2022/01/21 03:43:49;;;;;;;19.25;9.63;;;;;;;;;;5079290;28;20111;-65
2022/01/21 03:46:15;;;;;;;20.02;12.15;;;;;;;;;;5079325;28;20108;-65
2022/01/21 03:48:49;;;;;;;15.20;9.85;;;;;;;;;;5061261;28;20127;-64
2022/01/21 03:51:17;;;;;;;16.90;8.05;;;;;;;;;;5079198;28;20024;-65
2022/01/21 03:53:45;;;;;;;11.40;6.93;;;;;;;;;;5061463;28;20124;-65
2022/01/21 03:56:12;;;;;;;13.85;8.10;;;;;;;;;;5078983;28;20468;-65
2022/01/21 03:58:38;;;;;;;14.43;7.80;;;;;;;;;;5079191;28;20376;-65
2022/01/21 04:01:04;;;;;;;13.43;7.68;;;;;;;;;;5079158;28;20058;-65
2022/01/21 04:03:31;;;;;;;14.82;6.63;;;;;;;;;;5079185;28;20024;-65
2022/01/21 04:05:57;;;;;;;11.10;6.82;;;;;;;;;;5079169;28;20032;-65
2022/01/21 04:08:23;;;;;;;16.40;6.60;;;;;;;;;;5061076;28;20028;-65
2022/01/21 04:10:50;;;;;;;10.07;6.53;;;;;;;;;;5079089;28;20024;-66
2022/01/21 04:13:18;;;;;;;9.48;5.32;;;;;;;;;;5060986;28;20029;-64
2022/01/21 04:15:46;;;;;;;17.20;8.40;;;;;;;;;;5079089;28;20111;-64
2022/01/21 04:18:15;;;;;;;13.48;7.03;;;;;;;;;;5076899;28;20074;-64
2022/01/21 04:20:41;;;;;;;9.40;5.57;;;;;;;;;;5075847;28;20146;-65
2022/01/21 04:23:08;;;;;;;15.60;7.40;;;;;;;;;;5075746;28;20479;-64
2022/01/21 04:25:34;;;;;;;25.10;10.40;;;;;;;;;;5075658;28;20116;-65
2022/01/21 04:28:00;;;;;;;23.63;10.30;;;;;;;;;;5075667;28;20085;-63
2022/01/21 04:30:26;;;;;;;24.02;12.88;;;;;;;;;;5075640;28;20028;-65
2022/01/21 04:32:53;;;;;;;35.88;16.25;;;;;;;;;;5075553;28;20029;-65
2022/01/21 04:35:19;;;;;;;18.92;9.65;;;;;;;;;;5075374;28;20470;-64
2022/01/21 04:37:53;;;;;;;20.33;9.88;;;;;;;;;;5075496;28;20029;-64
2022/01/21 04:40:22;;;;;;;20.48;10.38;;;;;;;;;;5057567;28;20075;-63
2022/01/21 04:48:19;;;;;;;74.82;28.67;;;;;;;;;;5075119;28;20097;-65
2022/01/21 04:51:25;;;;;;;37.95;18.10;;;;;;;;;;5075250;28;20464;-64
2022/01/21 04:53:38;;;;;;;30.95;13.27;;;;;;;;;;5069798;28;20040;-64
2022/01/21 04:56:05;;;;;;;50.30;18.40;;;;;;;;;;5075174;28;20028;-64
2022/01/21 04:58:31;;;;;;;59.38;21.88;;;;;;;;;;5074852;28;20111;-64
2022/01/21 05:01:02;;;;;;;91.60;27.92;;;;;;;;;;5074769;28;20037;-65
2022/01/21 05:03:29;;;;;;;41.22;15.82;;;;;;;;;;5075117;28;20021;-64
2022/01/21 05:05:55;;;;;;;34.58;14.00;;;;;;;;;;5074923;28;20064;-65
2022/01/21 05:08:30;;;;;;;88.40;33.17;;;;;;;;;;5056992;28;20028;-65
2022/01/21 05:10:56;;;;;;;85.50;33.17;;;;;;;;;;5074913;28;20020;-66
2022/01/21 05:13:26;;;;;;;71.22;27.30;;;;;;;;;;5074546;28;20071;-65
2022/01/21 05:18:25;;;;;;;29.67;11.85;;;;;;;;;;5074431;28;20128;-66
2022/01/21 05:20:52;;;;;;;33.00;15.57;;;;;;;;;;5056666;28;20515;-66
2022/01/21 05:23:18;;;;;;;34.95;14.40;;;;;;;;;;5074312;28;20086;-65
2022/01/21 05:25:45;;;;;;;35.00;15.38;;;;;;;;;;5074248;28;20388;-65
2022/01/21 05:28:12;;;;;;;38.28;16.55;;;;;;;;;;5074836;28;20111;-65
2022/01/21 05:30:38;;;;;;;26.40;12.57;;;;;;;;;;5056396;28;20117;-64
2022/01/21 05:33:04;;;;;;;15.25;9.40;;;;;;;;;;5074437;28;20066;-65
2022/01/21 05:35:30;;;;;;;13.80;6.50;;;;;;;;;;5073978;28;20560;-66
2022/01/21 05:37:56;;;;;;;56.42;22.52;;;;;;;;;;5074306;28;20174;-66
2022/01/21 05:40:24;;;;;;;49.60;25.50;;;;;;;;;;5056283;28;20052;-65
2022/01/21 05:42:50;;;;;;;23.35;12.70;;;;;;;;;;5056204;28;20036;-66
2022/01/21 05:48:01;;;;;;;16.77;7.15;;;;;;;;;;5073924;28;20442;-66
2022/01/21 05:50:28;;;;;;;21.38;9.63;;;;;;;;;;5056134;28;20043;-66
2022/01/21 05:52:55;;;;;;;22.10;8.88;;;;;;;;;;5073993;28;20058;-67
2022/01/21 05:55:22;;;;;;;24.02;11.68;;;;;;;;;;5059304;28;20013;-66
2022/01/21 05:57:48;;;;;;;20.50;8.95;;;;;;;;;;5050318;28;20104;-68
2022/01/21 06:00:15;;;;;;;16.67;8.65;;;;;;;;;;5050010;28;20516;-68
2022/01/21 06:02:41;;;;;;;12.40;7.57;;;;;;;;;;5054060;28;20049;-66
2022/01/21 06:05:07;;;;;;;18.05;8.77;;;;;;;;;;5053334;28;20029;-66
2022/01/21 06:07:34;;;;;;;14.40;7.80;;;;;;;;;;5053747;28;20013;-64
2022/01/21 06:10:00;;;;;;;23.10;7.72;;;;;;;;;;5053528;28;20025;-66
2022/01/21 06:12:27;;;;;;;17.83;7.65;;;;;;;;;;5053565;28;20495;-65
2022/01/21 06:14:53;;;;;;;207.57;80.05;;;;;;;;;;5053666;28;20116;-65
2022/01/21 06:17:19;;;;;;;28.77;12.45;;;;;;;;;;5053664;28;20036;-65
2022/01/21 06:19:45;;;;;;;17.40;7.80;;;;;;;;;;5053538;28;20029;-66
2022/01/21 06:22:12;;;;;;;13.63;7.35;;;;;;;;;;5048685;28;20025;-67
2022/01/21 06:24:39;;;;;;;18.02;8.23;;;;;;;;;;5053009;28;20037;-68
2022/01/21 06:27:05;;;;;;;21.45;9.68;;;;;;;;;;5035315;28;20080;-66
2022/01/21 06:29:32;;;;;;;22.10;11.20;;;;;;;;;;5053286;28;20065;-64
2022/01/21 06:31:58;;;;;;;23.23;11.15;;;;;;;;;;5053109;28;20035;-63
2022/01/21 06:34:24;;;;;;;21.33;12.27;;;;;;;;;;5055099;28;20112;-64
2022/01/21 06:36:50;;;;;;;25.88;11.05;;;;;;;;;;5055095;28;20449;-63
2022/01/21 06:39:17;;;;;;;33.15;14.82;;;;;;;;;;5072793;28;20021;-64
2022/01/21 06:41:46;;;;;;;49.65;20.33;;;;;;;;;;5054196;28;20016;-64
2022/01/21 06:44:12;;;;;;;50.33;21.73;;;;;;;;;;5072611;28;20032;-64
2022/01/21 06:46:38;;;;;;;34.58;16.65;;;;;;;;;;5054411;28;20021;-64
2022/01/21 06:49:04;;;;;;;24.73;12.85;;;;;;;;;;5072399;28;20036;-64
2022/01/21 06:51:31;;;;;;;23.65;12.05;;;;;;;;;;5072294;28;20525;-64
2022/01/21 06:53:57;;;;;;;20.35;10.32;;;;;;;;;;5072330;28;20024;-64
2022/01/21 06:56:23;;;;;;;22.13;10.55;;;;;;;;;;5072416;28;20143;-64
2022/01/21 06:58:49;;;;;;;15.23;9.10;;;;;;;;;;5072519;28;20028;-64
2022/01/21 07:01:15;;;;;;;22.38;10.55;;;;;;;;;;5072238;28;20039;-63
2022/01/21 07:03:41;;;;;;;24.92;12.07;;;;;;;;;;5053939;28;20107;-63
2022/01/21 07:06:08;;;;;;;24.30;13.57;;;;;;;;;;5072205;28;20031;-64
2022/01/21 07:08:34;;;;;;;35.63;16.00;;;;;;;;;;5072007;28;20023;-64
2022/01/21 07:11:01;;;;;;;38.90;16.45;;;;;;;;;;5070409;28;20115;-64
2022/01/21 07:13:27;;;;;;;46.25;17.77;;;;;;;;;;5069946;28;20112;-63
2022/01/21 07:15:53;;;;;;;42.13;17.55;;;;;;;;;;5070961;28;20479;-63
2022/01/21 07:18:19;;;;;;;32.15;15.55;;;;;;;;;;5072448;28;20033;-64
2022/01/21 07:20:45;;;;;;;52.10;26.33;;;;;;;;;;5072707;28;20033;-64
2022/01/21 07:23:12;;;;;;;43.22;20.95;;;;;;;;;;5072646;28;20075;-63
2022/01/21 07:25:38;;;;;;;28.85;16.10;;;;;;;;;;5072761;28;20047;-63
2022/01/21 07:28:05;;;;;;;39.47;19.75;;;;;;;;;;5072552;28;20025;-65
2022/01/21 07:30:31;;;;;;;47.65;21.65;;;;;;;;;;5054674;28;20456;-64
2022/01/21 07:32:58;;;;;;;31.02;16.17;;;;;;;;;;5072635;28;20024;-63
2022/01/21 07:36:01;;;;;;;24.08;13.15;;;;;;;;;;5072186;28;20045;-63
2022/01/21 07:38:27;;;;;;;29.73;13.95;;;;;;;;;;5072663;28;20033;-64
2022/01/21 07:40:53;;;;;;;29.58;15.35;;;;;;;;;;5070789;28;20020;-62
2022/01/21 07:43:19;;;;;;;37.28;17.92;;;;;;;;;;5072698;28;20499;-64
2022/01/21 07:45:46;;;;;;;39.88;19.63;;;;;;;;;;5054325;28;20040;-68
2022/01/21 07:48:12;;;;;;;39.05;20.30;;;;;;;;;;5054420;28;20029;-67
2022/01/21 07:50:39;;;;;;;28.63;16.55;;;;;;;;;;5070114;28;20380;-67
2022/01/21 07:53:05;;;;;;;26.15;13.77;;;;;;;;;;5071748;28;20025;-66
2022/01/21 07:55:32;;;;;;;20.73;11.68;;;;;;;;;;5076457;28;20029;-68
2022/01/21 07:58:00;;;;;;;21.25;12.05;;;;;;;;;;5076151;28;20028;-65
2022/01/21 08:00:26;;;;;;;25.55;12.88;;;;;;;;;;5072426;28;20029;-69
2022/01/21 08:02:53;;;;;;;27.00;13.00;;;;;;;;;;5057881;28;20402;-71
2022/01/21 08:05:19;;;;;;;26.20;13.05;;;;;;;;;;5057683;28;20044;-68
2022/01/21 08:07:45;;;;;;;29.77;15.63;;;;;;;;;;5058071;28;20032;-66
2022/01/21 08:10:11;;;;;;;31.30;13.20;;;;;;;;;;5075942;28;20036;-70
2022/01/21 08:12:38;;;;;;;23.40;11.68;;;;;;;;;;5074948;28;20025;-68
2022/01/21 08:15:04;;;;;;;24.77;12.73;;;;;;;;;;5057845;28;20029;-70
2022/01/21 08:17:30;;;;;;;25.35;13.25;;;;;;;;;;5076056;28;20115;-70
2022/01/21 08:20:00;;;;;;;23.95;11.48;;;;;;;;;;5057770;28;20082;-70
2022/01/21 08:22:26;;;;;;;20.60;9.60;;;;;;;;;;5075955;28;20705;-70
2022/01/21 08:24:53;;;;;;;22.02;11.35;;;;;;;;;;5075232;28;20039;-69
2022/01/21 08:27:19;;;;;;;14.35;7.57;;;;;;;;;;5075583;28;20024;-68
2022/01/21 08:29:45;;;;;;;12.75;8.13;;;;;;;;;;5075446;28;20029;-69
2022/01/21 08:32:12;;;;;;;18.52;8.35;;;;;;;;;;5057472;28;20035;-67
2022/01/21 08:34:38;;;;;;;16.77;8.88;;;;;;;;;;5053761;28;20077;-68
2022/01/21 08:37:06;;;;;;;22.88;11.70;;;;;;;;;;5054221;28;20053;-68
2022/01/21 08:39:33;;;;;;;28.77;13.93;;;;;;;;;;5055442;28;20081;-67
2022/01/21 08:41:59;;;;;;;25.98;13.50;;;;;;;;;;5053996;28;20032;-68
2022/01/21 08:44:25;;;;;;;25.30;12.05;;;;;;;;;;5053856;28;20024;-65
2022/01/21 08:46:51;;;;;;;26.02;12.48;;;;;;;;;;5054006;28;20509;-67
2022/01/21 08:49:20;;;;;;;36.28;16.23;;;;;;;;;;5055461;28;20154;-66
2022/01/21 08:51:50;;;;;;;23.50;11.82;;;;;;;;;;5055041;28;20025;-67
2022/01/21 08:54:17;;;;;;;78.38;32.65;;;;;;;;;;5055487;28;20362;-65
2022/01/21 08:56:44;;;;;;;26.63;13.70;;;;;;;;;;5055033;28;20078;-67
2022/01/21 08:59:10;;;;;;;31.40;15.05;;;;;;;;;;5054706;28;20026;-68
2022/01/21 09:01:36;;;;;;;20.90;9.77;;;;;;;;;;5053663;28;20115;-65
2022/01/21 09:04:03;;;;;;;24.10;10.32;;;;;;;;;;5052109;28;20025;-64
2022/01/21 09:06:29;;;;;;;21.10;10.65;;;;;;;;;;5053614;28;20033;-72
2022/01/21 09:08:59;;;;;;;24.13;11.38;;;;;;;;;;5053241;28;20033;-71
2022/01/21 09:11:25;;;;;;;18.58;8.68;;;;;;;;;;5054600;28;20116;-68
2022/01/21 09:13:52;;;;;;;34.90;13.68;;;;;;;;;;5054629;28;20433;-72
2022/01/21 09:16:19;;;;;;;38.80;14.70;;;;;;;;;;5053227;28;20035;-66
2022/01/21 09:18:47;;;;;;;49.65;20.95;;;;;;;;;;5053414;28;20033;-69
2022/01/21 09:21:15;;;;;;;119.38;51.60;;;;;;;;;;5054619;28;20013;-67
2022/01/21 09:23:41;;;;;;;208.70;89.97;;;;;;;;;;5054535;28;20043;-65
2022/01/21 09:26:08;;;;;;;203.10;80.43;;;;;;;;;;5054367;28;20378;-66
2022/01/21 09:28:34;;;;;;;28.35;10.98;;;;;;;;;;5053121;28;20048;-67
2022/01/21 09:31:01;;;;;;;8.43;4.75;;;;;;;;;;5052876;28;20029;-65
2022/01/21 09:33:27;;;;;;;21.30;10.48;;;;;;;;;;5054281;28;20056;-66
2022/01/21 09:35:53;;;;;;;15.88;3.47;;;;;;;;;;5068392;28;20053;-67
2022/01/21 09:38:20;;;;;;;19.13;8.30;;;;;;;;;;5074116;28;20025;-68
2022/01/21 09:40:50;;;;;;;10.98;5.75;;;;;;;;;;5056163;28;20492;-68
2022/01/21 09:43:18;;;;;;;11.80;5.50;;;;;;;;;;5073698;28;20376;-66
2022/01/21 09:45:47;;;;;;;10.57;5.63;;;;;;;;;;5055908;28;20899;-68
2022/01/21 09:48:21;;;;;;;8.57;4.03;;;;;;;;;;5056006;28;20547;-67
2022/01/21 09:50:48;;;;;;;14.75;7.78;;;;;;;;;;5073814;28;20032;-67
2022/01/21 09:53:14;;;;;;;12.95;6.18;;;;;;;;;;5073386;28;20536;-67
2022/01/21 09:55:41;;;;;;;12.75;4.65;;;;;;;;;;5055814;28;20115;-67
2022/01/21 09:58:08;;;;;;;10.23;5.82;;;;;;;;;;5073707;28;20116;-66
2022/01/21 10:00:34;;;;;;;12.18;5.20;;;;;;;;;;5073856;28;20480;-67
2022/01/21 10:03:03;;;;;;;13.07;5.85;;;;;;;;;;5073620;28;20036;-67
2022/01/21 10:05:30;;;;;;;19.48;7.18;;;;;;;;;;5073294;28;20036;-67
2022/01/21 10:07:59;;;;;;;10.52;5.53;;;;;;;;;;5055556;28;20039;-68
2022/01/21 10:10:26;;;;;;;15.07;4.78;;;;;;;;;;5053547;28;20500;-67
2022/01/21 10:13:01;;;;;;;11.07;3.95;;;;;;;;;;5053814;28;20107;-71
2022/01/21 10:15:27;;;;;;;5.40;2.83;;;;;;;;;;5053354;28;20466;-64
2022/01/21 10:18:01;;;;;;;11.65;4.72;;;;;;;;;;5034790;28;20116;-67
2022/01/21 10:20:27;;;;;;;11.15;4.45;;;;;;;;;;5035262;28;20143;-65
2022/01/21 10:23:02;;;;;;;11.85;4.40;;;;;;;;;;5035506;28;20033;-67
2022/01/21 10:25:29;;;;;;;17.50;9.15;;;;;;;;;;5035106;28;20033;-65
2022/01/21 10:28:08;;;;;;;10.85;4.78;;;;;;;;;;5035457;28;20033;-66
2022/01/21 10:30:34;;;;;;;18.40;9.07;;;;;;;;;;5035408;28;20028;-65
2022/01/21 10:33:00;;;;;;;25.85;12.80;;;;;;;;;;5035392;28;20056;-66
2022/01/21 10:35:30;;;;;;;10.02;5.35;;;;;;;;;;5053095;28;20547;-65
2022/01/21 10:37:59;;;;;;;12.98;6.68;;;;;;;;;;5035141;28;20472;-66
2022/01/21 10:40:33;;;;;;;16.08;7.90;;;;;;;;;;5033970;28;20025;-66
2022/01/21 10:43:11;;;;;;;21.27;9.60;;;;;;;;;;5053261;28;20115;-65
2022/01/21 10:45:57;;;;;;;27.98;13.00;;;;;;;;;;5035150;28;20028;-64
2022/01/21 10:48:24;;;;;;;52.20;23.83;;;;;;;;;;5053094;28;20079;-65
2022/01/21 10:51:09;;;;;;;45.22;19.38;;;;;;;;;;5035249;28;20810;-67
2022/01/21 10:53:36;;;;;;;49.97;24.35;;;;;;;;;;5052946;28;20473;-68
2022/01/21 10:56:10;;;;;;;17.05;11.68;;;;;;;;;;5053020;28;20033;-67
2022/01/21 10:58:44;;;;;;;18.25;10.88;;;;;;;;;;5052851;28;20025;-66
2022/01/21 11:01:13;;;;;;;88.50;33.53;;;;;;;;;;5052887;28;20111;-66
2022/01/21 11:04:15;;;;;;;80.70;30.80;;;;;;;;;;5052889;28;20416;-66
2022/01/21 11:06:56;;;;;;;42.20;15.80;;;;;;;;;;4972167;28;20121;-68
2022/01/21 11:09:24;;;;;;;32.47;14.52;;;;;;;;;;4971272;28;20038;-69
2022/01/21 11:12:11;;;;;;;19.13;8.57;;;;;;;;;;4971328;28;20030;-71
2022/01/21 11:14:37;;;;;;;26.83;15.50;;;;;;;;;;4971259;28;20506;-71
2022/01/21 11:17:15;;;;;;;24.75;10.07;;;;;;;;;;4971207;28;20022;-70
2022/01/21 11:20:00;;;;;;;24.63;9.55;;;;;;;;;;4971224;28;20142;-68
2022/01/21 11:22:26;;;;;;;14.73;6.57;;;;;;;;;;4971365;28;20125;-68
2022/01/21 11:24:55;;;;;;;11.23;5.75;;;;;;;;;;4955252;28;20031;-69
2022/01/21 11:27:22;;;;;;;21.98;6.85;;;;;;;;;;4967916;28;20487;-67
2022/01/21 11:29:49;;;;;;;12.75;4.70;;;;;;;;;;4958515;28;20498;-67
2022/01/21 11:32:16;;;;;;;13.90;6.18;;;;;;;;;;4975213;28;20542;-70
2022/01/21 11:34:43;;;;;;;14.65;5.80;;;;;;;;;;4958754;28;20125;-67
2022/01/21 11:37:09;;;;;;;11.90;5.13;;;;;;;;;;4975293;28;20062;-68
2022/01/21 11:39:36;;;;;;;17.05;4.85;;;;;;;;;;4982002;28;20119;-65
2022/01/21 11:42:05;;;;;;;9.70;4.20;;;;;;;;;;5061702;28;20488;-65
2022/01/21 11:44:33;;;;;;;10.93;5.72;;;;;;;;;;5056133;28;20024;-66
2022/01/21 11:47:13;;;;;;;23.58;6.60;;;;;;;;;;5056175;28;20033;-64
2022/01/21 11:49:40;;;;;;;14.48;5.03;;;;;;;;;;5055133;28;20104;-62
2022/01/21 11:52:18;;;;;;;15.65;6.05;;;;;;;;;;5055728;28;20025;-61
2022/01/21 11:54:45;;;;;;;11.73;4.38;;;;;;;;;;5055885;28;20087;-65
2022/01/21 11:57:12;;;;;;;22.15;9.10;;;;;;;;;;5056165;28;20029;-61
2022/01/21 11:59:51;;;;;;;12.73;3.97;;;;;;;;;;5038154;28;20121;-63
2022/01/21 12:02:19;;;;;;;8.40;3.28;;;;;;;;;;5056151;28;20032;-62
2022/01/21 12:04:52;;;;;;;8.95;4.82;;;;;;;;;;5055757;28;20684;-63
2022/01/21 12:07:34;;;;;;;12.52;6.25;;;;;;;;;;5056019;28;20032;-63
2022/01/21 12:10:25;;;;;;;14.63;7.35;;;;;;;;;;5056053;28;20105;-64
2022/01/21 12:13:03;;;;;;;10.60;4.32;;;;;;;;;;5048374;28;20481;-63
2022/01/21 12:15:35;;;;;;;10.55;3.53;;;;;;;;;;5038079;28;20385;-63
2022/01/21 12:18:06;;;;;;;303.08;106.88;;;;;;;;;;5055868;28;20033;-63
2022/01/21 12:20:33;;;;;;;11.88;4.70;;;;;;;;;;5055879;28;20021;-63
2022/01/21 12:23:14;;;;;;;10.40;3.13;;;;;;;;;;5055645;28;20052;-62
2022/01/21 12:25:59;;;;;;;14.95;5.95;;;;;;;;;;5055611;28;20049;-63
2022/01/21 12:28:25;;;;;;;10.57;5.57;;;;;;;;;;5055649;28;20028;-63
2022/01/21 12:30:55;;;;;;;8.35;3.30;;;;;;;;;;5055888;28;20021;-63
2022/01/21 12:33:23;;;;;;;7.20;3.67;;;;;;;;;;5052635;28;20055;-62
2022/01/21 12:35:55;;;;;;;9.60;2.25;;;;;;;;;;5049711;28;20044;-64
2022/01/21 12:41:20;;;;;;;10.60;4.10;;;;;;;;;;5074219;28;20090;-65
2022/01/21 12:43:48;;;;;;;8.27;3.67;;;;;;;;;;5071810;28;20067;-64
2022/01/21 12:46:14;;;;;;;6.97;2.25;;;;;;;;;;5055558;28;20062;-64
2022/01/21 12:48:41;;;;;;;6.68;3.63;;;;;;;;;;5075072;28;20035;-65
2022/01/21 12:51:17;;;;;;;8.80;3.03;;;;;;;;;;5057233;28;20059;-64
2022/01/21 12:56:41;;;;;;;196.55;61.03;;;;;;;;;;5075101;28;20633;-64
2022/01/21 12:59:08;;;;;;;217.23;68.35;;;;;;;;;;5074977;28;20067;-64
2022/01/21 13:01:38;;;;;;;221.00;64.95;;;;;;;;;;5074938;28;20032;-64
2022/01/21 13:04:10;;;;;;;247.88;70.35;;;;;;;;;;5056871;28;20025;-64
2022/01/21 13:06:48;;;;;;;55.72;16.33;;;;;;;;;;5074839;28;20113;-64
2022/01/21 13:09:21;;;;;;;63.45;21.05;;;;;;;;;;5074545;28;20025;-64
2022/01/21 13:11:55;;;;;;;80.20;28.50;;;;;;;;;;5073043;28;20020;-64
2022/01/21 13:14:33;;;;;;;47.92;17.00;;;;;;;;;;5074717;28;20029;-65
2022/01/21 13:17:00;;;;;;;17.88;6.07;;;;;;;;;;5074777;28;20029;-64
2022/01/21 13:19:30;;;;;;;65.28;19.35;;;;;;;;;;5056514;28;20036;-65
2022/01/21 13:21:56;;;;;;;21.25;8.65;;;;;;;;;;5074318;28;20480;-65
2022/01/21 13:24:28;;;;;;;64.28;19.65;;;;;;;;;;5056369;28;20052;-65
2022/01/21 13:26:54;;;;;;;61.33;16.73;;;;;;;;;;5056479;28;20031;-64
2022/01/21 13:29:28;;;;;;;18.00;6.15;;;;;;;;;;5056151;28;20024;-64
2022/01/21 13:31:56;;;;;;;68.47;19.27;;;;;;;;;;5074379;28;20024;-65
2022/01/21 13:34:32;;;;;;;29.27;9.40;;;;;;;;;;5054235;28;20119;-65
2022/01/21 13:36:59;;;;;;;33.38;7.88;;;;;;;;;;5054225;28;20056;-64
2022/01/21 13:39:34;;;;;;;41.40;11.63;;;;;;;;;;5036278;28;20029;-64
2022/01/21 13:42:03;;;;;;;9.52;4.22;;;;;;;;;;5054217;28;20025;-64
2022/01/21 13:44:29;;;;;;;42.10;12.40;;;;;;;;;;5053892;28;20029;-64
2022/01/21 13:46:57;;;;;;;58.83;22.38;;;;;;;;;;5054439;28;20029;-64
2022/01/21 13:49:24;;;;;;;64.80;22.75;;;;;;;;;;5036186;28;20121;-65
2022/01/21 13:51:54;;;;;;;38.70;14.90;;;;;;;;;;5054031;28;20445;-64
2022/01/21 13:54:28;;;;;;;21.52;9.27;;;;;;;;;;5054009;28;20035;-69
2022/01/21 13:56:54;;;;;;;46.05;15.93;;;;;;;;;;5052414;28;20450;-66
2022/01/21 13:59:20;;;;;;;20.92;7.78;;;;;;;;;;5035196;28;20457;-65
2022/01/21 14:01:46;;;;;;;12.48;5.35;;;;;;;;;;5035871;28;20025;-72
2022/01/21 14:04:13;;;;;;;40.67;15.90;;;;;;;;;;5034234;28;20450;-68
2022/01/21 14:06:39;;;;;;;34.80;14.18;;;;;;;;;;5053725;28;20025;-66
2022/01/21 14:09:05;;;;;;;23.08;9.88;;;;;;;;;;5053411;28;20021;-69
2022/01/21 14:11:36;;;;;;;37.00;14.43;;;;;;;;;;5035494;28;20547;-68
2022/01/21 14:14:07;;;;;;;21.13;7.63;;;;;;;;;;5053471;28;20024;-71
2022/01/21 14:16:39;;;;;;;15.98;5.75;;;;;;;;;;5053349;28;20107;-69
2022/01/21 14:19:10;;;;;;;22.13;7.25;;;;;;;;;;5053251;28;20021;-68
2022/01/21 14:21:37;;;;;;;286.08;108.78;;;;;;;;;;5052064;28;20154;-72
2022/01/21 14:24:20;;;;;;;18.27;7.72;;;;;;;;;;5050833;28;20048;-70
2022/01/21 14:26:50;;;;;;;11.50;3.83;;;;;;;;;;5033944;28;20485;-71
2022/01/21 14:29:36;;;;;;;15.15;6.25;;;;;;;;;;5052262;28;20017;-70
2022/01/21 14:32:16;;;;;;;14.55;4.43;;;;;;;;;;5052999;28;20108;-70
2022/01/21 14:34:43;;;;;;;12.95;4.97;;;;;;;;;;5057583;28;20066;-69
2022/01/21 14:37:12;;;;;;;15.15;5.20;;;;;;;;;;5055402;28;20059;-68
2022/01/21 14:39:48;;;;;;;8.55;3.38;;;;;;;;;;5073216;28;20020;-70
2022/01/21 14:42:19;;;;;;;15.82;4.82;;;;;;;;;;5055218;28;20109;-70
2022/01/21 14:44:47;;;;;;;14.27;5.45;;;;;;;;;;5055153;28;20499;-69
2022/01/21 14:47:17;;;;;;;11.32;4.82;;;;;;;;;;5073180;28;20052;-69
2022/01/21 14:49:46;;;;;;;16.00;5.83;;;;;;;;;;5073152;28;20013;-70
2022/01/21 14:54:55;;;;;;;11.93;6.10;;;;;;;;;;5073134;28;20086;-69
2022/01/21 14:57:28;;;;;;;15.68;5.60;;;;;;;;;;5055034;28;20479;-68
2022/01/21 14:59:56;;;;;;;15.88;5.35;;;;;;;;;;5054931;28;20465;-69
2022/01/21 15:02:27;;;;;;;13.13;5.95;;;;;;;;;;5072499;28;20020;-69
2022/01/21 15:04:54;;;;;;;16.17;6.72;;;;;;;;;;5072903;28;20028;-70
2022/01/21 15:07:27;;;;;;;26.88;8.60;;;;;;;;;;5072903;28;20099;-69
2022/01/21 15:09:55;;;;;;;27.05;11.13;;;;;;;;;;5072957;28;20025;-69
2022/01/21 15:15:34;;;;;;;24.55;9.82;;;;;;;;;;5043757;28;20033;-69
2022/01/21 15:18:02;;;;;;;33.55;13.18;;;;;;;;;;5054695;28;20071;-70
2022/01/21 15:20:35;;;;;;;19.50;7.18;;;;;;;;;;5072753;28;20036;-70
2022/01/21 15:23:02;;;;;;;30.98;8.50;;;;;;;;;;5072897;28;20021;-69
2022/01/21 15:25:28;;;;;;;26.48;8.52;;;;;;;;;;5054401;28;20031;-70
2022/01/21 15:27:54;;;;;;;30.70;11.25;;;;;;;;;;5054747;28;20119;-69
2022/01/21 15:30:22;;;;;;;32.75;12.15;;;;;;;;;;5072726;28;20365;-68
2022/01/21 15:32:48;;;;;;;29.48;9.70;;;;;;;;;;5072726;28;20021;-69
2022/01/21 15:35:14;;;;;;;39.03;14.02;;;;;;;;;;5072592;28;20143;-73
2022/01/21 15:37:41;;;;;;;29.27;11.73;;;;;;;;;;5072377;28;20480;-70